Ballesteros, Argentina
Current Conditions -  °F | °C
As of 7:00 PM on Sunday 21 Dec 2014 (Local Time) from SAOC Reporting Station
Broken Clouds Broken Clouds  
Wind Chill: 63°   Ceiling: 2500
Heat Index: 63°   Visibility: 6mi
Dew Point: 41°   Wind: 5mph
Humidity: 45%   Direction: 270°W
Pressure: 29.91"   Gusts: NA
Location:  32.55°S, 62.98°W
Report Text: SAOC 212200Z 27004KT 9999 BKN025 SCT04017/05 Q1013
Loading
Personal Weather Stations






























Interactive Weather Map New forecast layout! Learn more

10-Day Weather Forecast

Advertisements
Track Severe Weather on mobile